createdAt,value
2018-04-25T00:09:24.434Z,13.90
2018-04-25T00:14:28.740Z,13.70
2018-04-25T00:19:36.939Z,13.70
2018-04-25T00:24:40.549Z,13.60
2018-04-25T00:29:45.811Z,13.60
2018-04-25T00:34:53.988Z,13.50
2018-04-25T00:40:00.037Z,13.40
2018-04-25T00:45:07.102Z,13.40
2018-04-25T00:50:15.836Z,13.30
2018-04-25T00:55:19.781Z,13.30
2018-04-25T01:00:23.808Z,13.20
2018-04-25T01:05:28.759Z,13.10
2018-04-25T01:10:33.988Z,13.10
2018-04-25T01:15:39.759Z,13.10
2018-04-25T01:20:46.165Z,13.00
2018-04-25T01:25:50.180Z,12.90
2018-04-25T01:31:11.296Z,12.80
2018-04-25T01:41:33.841Z,12.80
2018-04-25T01:51:56.186Z,12.70
2018-04-25T01:57:11.674Z,12.70
2018-04-25T02:02:15.217Z,12.60
2018-04-25T02:07:19.391Z,12.60
2018-04-25T02:12:24.211Z,12.50
2018-04-25T02:17:29.584Z,12.50
2018-04-25T02:22:37.086Z,12.40
2018-04-25T02:27:41.746Z,12.40
2018-04-25T02:32:49.181Z,12.40
2018-04-25T02:37:54.139Z,12.40
2018-04-25T02:42:59.311Z,12.40
2018-04-25T02:48:05.727Z,12.30
2018-04-25T02:53:14.398Z,12.30
2018-04-25T02:58:18.136Z,12.30
2018-04-25T03:03:22.863Z,12.30
2018-04-25T03:08:33.490Z,12.20
2018-04-25T03:13:39.642Z,12.20
2018-04-25T03:18:44.370Z,12.20
2018-04-25T03:29:00.728Z,12.10
2018-04-25T03:34:05.282Z,12.10
2018-04-25T03:39:08.667Z,12.10
2018-04-25T03:44:11.618Z,12.10
2018-04-25T03:59:31.715Z,12.00
2018-04-25T04:04:36.740Z,12.00
2018-04-25T04:09:43.327Z,12.00
2018-04-25T04:19:48.362Z,11.90
2018-04-25T04:24:51.254Z,11.90
2018-04-25T04:29:54.303Z,11.80
2018-04-25T04:34:59.209Z,11.80
2018-04-25T04:40:03.758Z,11.80
2018-04-25T04:45:06.918Z,11.80
2018-04-25T04:50:09.635Z,11.80
2018-04-25T04:55:12.183Z,11.80
2018-04-25T05:00:15.813Z,11.80
2018-04-25T05:05:21.070Z,11.80
2018-04-25T05:10:30.237Z,11.80
2018-04-25T05:15:33.219Z,11.90
2018-04-25T05:20:37.928Z,12.00
2018-04-25T05:25:41.978Z,12.20
2018-04-25T05:30:48.246Z,12.30
2018-04-25T05:35:52.266Z,12.60
2018-04-25T05:40:55.308Z,12.90
2018-04-25T05:45:58.458Z,13.10
2018-04-25T05:51:01.196Z,13.30
2018-04-25T05:56:07.435Z,13.60
2018-04-25T06:01:11.351Z,14.00
2018-04-25T06:06:14.243Z,14.30
2018-04-25T06:11:17.259Z,14.50
2018-04-25T06:16:20.480Z,14.80
2018-04-25T06:21:24.261Z,15.10
2018-04-25T06:26:28.124Z,15.70
2018-04-25T06:31:32.603Z,15.70
2018-04-25T06:36:35.486Z,16.00
2018-04-25T06:41:38.500Z,16.20
2018-04-25T06:46:42.862Z,16.40
2018-04-25T06:51:45.665Z,16.40
2018-04-25T06:56:48.502Z,16.40
2018-04-25T07:01:51.696Z,16.50
2018-04-25T07:06:54.605Z,16.60
2018-04-25T07:11:57.910Z,16.90
2018-04-25T07:17:00.996Z,17.30
2018-04-25T07:22:05.615Z,17.60
2018-04-25T07:27:08.978Z,18.30
2018-04-25T07:32:12.546Z,18.30
2018-04-25T07:37:16.111Z,18.70
2018-04-25T07:42:18.828Z,19.20
2018-04-25T07:47:25.116Z,19.50
2018-04-25T07:52:28.045Z,20.00
2018-04-25T07:57:31.017Z,20.30
2018-04-25T08:02:34.538Z,20.60
2018-04-25T08:07:38.471Z,20.90
2018-04-25T08:12:54.361Z,21.10
2018-04-25T08:18:09.515Z,21.40
2018-04-25T08:23:12.261Z,21.60
2018-04-25T08:28:15.593Z,21.80
2018-04-25T08:33:20.301Z,22.10
2018-04-25T08:38:24.670Z,22.30
2018-04-25T08:43:28.237Z,22.50
2018-04-25T08:48:31.110Z,22.70
2018-04-25T08:53:34.062Z,23.00
2018-04-25T08:58:38.099Z,23.20
2018-04-25T09:03:41.077Z,23.40
2018-04-25T09:08:43.949Z,23.60
2018-04-25T09:13:46.769Z,23.80
2018-04-25T09:18:49.590Z,24.00
2018-04-25T09:23:52.811Z,24.10
2018-04-25T09:28:55.656Z,24.30
2018-04-25T09:33:59.376Z,24.40
2018-04-25T09:39:03.006Z,24.50
2018-04-25T09:44:07.377Z,24.80
2018-04-25T09:49:10.880Z,24.80
2018-04-25T09:54:13.995Z,25.00
2018-04-25T09:59:16.803Z,25.10
2018-04-25T10:04:20.440Z,25.20
2018-04-25T10:09:24.747Z,25.30
2018-04-25T10:14:27.635Z,25.40
2018-04-25T10:19:31.132Z,25.50
2018-04-25T10:24:34.622Z,25.60
2018-04-25T10:29:38.169Z,25.60
2018-04-25T10:34:40.868Z,25.60
2018-04-25T10:39:43.901Z,25.50
2018-04-25T10:44:46.718Z,25.40
2018-04-25T10:49:49.405Z,25.40
2018-04-25T10:54:52.086Z,25.30
2018-04-25T10:59:55.663Z,25.30
2018-04-25T11:04:58.626Z,25.30
2018-04-25T11:10:01.683Z,25.30
2018-04-25T11:15:04.317Z,25.40
2018-04-25T11:20:07.278Z,25.60
2018-04-25T11:25:10.590Z,25.70
2018-04-25T11:30:13.426Z,25.80
2018-04-25T11:35:17.128Z,25.90
2018-04-25T11:40:20.055Z,26.00
2018-04-25T11:45:24.138Z,26.00
2018-04-25T11:50:28.796Z,25.90
2018-04-25T11:55:31.582Z,25.70
2018-04-25T12:00:34.336Z,25.50
2018-04-25T12:05:40.419Z,25.30
2018-04-25T12:10:44.694Z,25.10
2018-04-25T12:15:47.626Z,24.90
2018-04-25T12:20:50.756Z,24.80
2018-04-25T12:25:53.469Z,24.70
2018-04-25T12:30:57.299Z,24.80
2018-04-25T12:36:00.421Z,24.90
2018-04-25T12:41:03.104Z,25.10
2018-04-25T12:46:06.971Z,25.30
2018-04-25T12:51:10.965Z,25.30
2018-04-25T12:56:14.336Z,25.40
2018-04-25T13:01:17.721Z,25.60
2018-04-25T13:06:20.660Z,25.60
2018-04-25T13:11:23.630Z,25.60
2018-04-25T13:16:26.756Z,25.50
2018-04-25T13:21:29.789Z,25.40
2018-04-25T13:26:33.812Z,25.30
2018-04-25T13:31:36.974Z,25.20
2018-04-25T13:36:39.948Z,25.20
2018-04-25T13:41:43.748Z,25.20
2018-04-25T13:46:47.423Z,25.30
2018-04-25T13:51:50.173Z,25.50
2018-04-25T13:56:53.746Z,25.50
2018-04-25T14:01:56.273Z,25.50
2018-04-25T14:06:58.904Z,25.50
2018-04-25T14:12:01.420Z,25.40
2018-04-25T14:17:04.496Z,25.40
2018-04-25T14:22:08.229Z,25.30
2018-04-25T14:27:11.116Z,25.10
2018-04-25T14:32:14.832Z,25.00
2018-04-25T14:37:18.572Z,24.90
2018-04-25T14:42:22.215Z,24.80
2018-04-25T14:47:25.754Z,24.60
2018-04-25T14:52:28.549Z,24.40
2018-04-25T14:57:31.898Z,24.30
2018-04-25T15:02:35.535Z,24.20
2018-04-25T15:07:38.590Z,24.30
2018-04-25T15:12:41.272Z,24.30
2018-04-25T15:17:44.912Z,24.40
2018-04-25T15:22:48.315Z,24.40
2018-04-25T15:27:51.006Z,24.40
2018-04-25T15:32:54.021Z,24.30
2018-04-25T15:37:57.579Z,24.30
2018-04-25T15:43:00.672Z,24.20
2018-04-25T15:48:03.996Z,24.10
2018-04-25T15:53:06.788Z,24.00
2018-04-25T15:58:10.257Z,23.90
2018-04-25T16:03:13.118Z,23.90
2018-04-25T16:08:16.201Z,23.80
2018-04-25T16:13:22.018Z,23.80
2018-04-25T16:18:24.718Z,23.70
2018-04-25T16:23:27.504Z,23.50
2018-04-25T16:28:31.028Z,23.40
2018-04-25T16:33:33.716Z,23.30
2018-04-25T16:38:38.642Z,23.00
2018-04-25T16:43:41.289Z,23.00
2018-04-25T16:48:44.501Z,22.90
2018-04-25T16:53:50.542Z,22.60
2018-04-25T16:58:53.464Z,22.50
2018-04-25T17:03:56.725Z,22.40
2018-04-25T17:08:59.552Z,22.30
2018-04-25T17:14:02.382Z,22.20
2018-04-25T17:19:05.820Z,21.90
2018-04-25T17:24:09.390Z,21.90
2018-04-25T17:29:13.946Z,21.70
2018-04-25T17:34:16.891Z,21.70
2018-04-25T17:39:20.254Z,21.50
2018-04-25T17:44:23.119Z,21.40
2018-04-25T17:49:26.058Z,21.30
2018-04-25T17:54:29.326Z,21.10
2018-04-25T17:59:33.822Z,21.00
2018-04-25T18:04:38.355Z,20.80
2018-04-25T18:09:42.791Z,20.70
2018-04-25T18:14:45.931Z,20.60
2018-04-25T18:19:49.539Z,20.50
2018-04-25T18:24:52.783Z,20.40
2018-04-25T18:29:55.620Z,20.30
2018-04-25T18:34:58.730Z,20.10
2018-04-25T18:40:02.059Z,20.10
2018-04-25T18:45:05.228Z,19.90
2018-04-25T18:50:08.751Z,19.80
2018-04-25T18:55:11.563Z,19.70
2018-04-25T19:00:16.265Z,19.60
2018-04-25T19:05:20.584Z,19.50
2018-04-25T19:10:25.891Z,19.40
2018-04-25T19:15:29.680Z,19.30
2018-04-25T19:20:34.494Z,19.20
2018-04-25T19:30:45.996Z,19.00
2018-04-25T19:35:49.730Z,18.90
2018-04-25T19:40:53.693Z,18.80
2018-04-25T19:45:58.669Z,18.60
2018-04-25T19:51:01.269Z,18.60
2018-04-25T19:56:08.035Z,18.60
2018-04-25T20:01:11.916Z,18.50
2018-04-25T20:06:16.605Z,18.40
2018-04-25T20:11:20.121Z,18.30
2018-04-25T20:16:24.167Z,18.20
2018-04-25T20:21:28.515Z,18.20
2018-04-25T20:26:31.243Z,18.10
2018-04-25T20:31:36.185Z,17.90
2018-04-25T20:36:40.948Z,17.90
2018-04-25T20:46:51.935Z,17.70
2018-04-25T20:51:56.142Z,17.70
2018-04-25T20:57:00.655Z,17.60
2018-04-25T21:02:07.971Z,17.50
2018-04-25T21:07:13.178Z,17.40
2018-04-25T21:12:19.600Z,17.30
2018-04-25T21:17:24.716Z,17.20
2018-04-25T21:22:28.019Z,17.20
2018-04-25T21:27:31.681Z,17.10
2018-04-25T21:32:35.644Z,17.00
2018-04-25T21:37:38.499Z,17.00
2018-04-25T21:42:41.979Z,16.90
2018-04-25T21:47:46.412Z,16.90
2018-04-25T21:52:51.056Z,16.80
2018-04-25T21:57:54.966Z,16.70
2018-04-25T22:02:58.549Z,16.70
2018-04-25T22:08:02.990Z,16.60
2018-04-25T22:13:07.114Z,16.60
2018-04-25T22:18:11.322Z,16.50
2018-04-25T22:23:17.084Z,16.40
2018-04-25T22:28:25.052Z,16.40
2018-04-25T22:33:28.204Z,16.40
2018-04-25T22:38:32.541Z,16.30
2018-04-25T22:43:35.882Z,16.30
2018-04-25T22:48:41.203Z,16.20
2018-04-25T22:53:45.168Z,16.20
2018-04-25T22:58:49.942Z,16.10
2018-04-25T23:03:53.427Z,16.10
2018-04-25T23:08:56.473Z,16.00
2018-04-25T23:14:00.811Z,16.00
2018-04-25T23:19:05.289Z,15.90
2018-04-25T23:24:08.358Z,15.90
2018-04-25T23:29:11.551Z,15.80
2018-04-25T23:34:16.846Z,15.70
2018-04-25T23:39:20.941Z,15.70
2018-04-25T23:44:24.288Z,15.70
2018-04-25T23:54:37.766Z,15.60
2018-04-25T23:59:41.070Z,15.60
